createdAt,value
2017-08-18T00:01:43.636Z,51.63
2017-08-18T00:04:11.086Z,50.20
2017-08-18T00:06:38.946Z,48.20
2017-08-18T00:09:06.426Z,50.00
2017-08-18T00:11:33.899Z,51.13
2017-08-18T00:14:01.354Z,41.50
2017-08-18T00:16:28.855Z,47.30
2017-08-18T00:18:56.318Z,48.07
2017-08-18T00:21:23.780Z,44.13
2017-08-18T00:23:51.267Z,46.70
2017-08-18T00:26:18.726Z,42.73
2017-08-18T00:28:46.187Z,46.63
2017-08-18T00:31:13.671Z,45.47
2017-08-18T00:33:41.134Z,49.17
2017-08-18T00:36:08.595Z,42.17
2017-08-18T00:38:36.078Z,42.27
2017-08-18T00:41:03.930Z,46.27
2017-08-18T00:43:31.398Z,42.17
2017-08-18T00:45:59.275Z,42.57
2017-08-18T00:48:27.139Z,44.20
2017-08-18T00:50:54.610Z,46.07
2017-08-18T00:53:22.092Z,49.97
2017-08-18T00:55:49.556Z,49.10
2017-08-18T00:58:17.023Z,46.40
2017-08-18T01:00:44.795Z,54.70
2017-08-18T01:03:12.253Z,51.83
2017-08-18T01:05:39.715Z,46.83
2017-08-18T01:08:07.170Z,49.47
2017-08-18T01:10:34.639Z,50.80
2017-08-18T01:13:02.791Z,49.60
2017-08-18T01:15:30.253Z,53.63
2017-08-18T01:17:58.126Z,47.90
2017-08-18T01:20:26.387Z,48.63
2017-08-18T01:22:53.859Z,46.13
2017-08-18T01:25:21.718Z,47.07
2017-08-18T01:27:49.879Z,45.23
2017-08-18T01:30:17.338Z,45.80
2017-08-18T01:32:44.807Z,48.67
2017-08-18T01:35:12.687Z,47.80
2017-08-18T01:37:40.146Z,45.90
2017-08-18T01:40:07.611Z,42.57
2017-08-18T01:42:35.203Z,42.97
2017-08-18T01:45:02.663Z,43.70
2017-08-18T01:47:30.127Z,45.17
2017-08-18T01:49:58.614Z,46.20
2017-08-18T01:52:26.079Z,46.83
2017-08-18T01:54:53.530Z,45.40
2017-08-18T01:57:21.406Z,47.00
2017-08-18T01:59:49.263Z,49.30
2017-08-18T02:02:17.126Z,47.80
2017-08-18T02:04:44.598Z,47.27
2017-08-18T02:07:12.055Z,48.90
2017-08-18T02:09:39.519Z,49.53
2017-08-18T02:12:07.247Z,50.77
2017-08-18T02:14:35.112Z,51.43
2017-08-18T02:17:02.566Z,50.07
2017-08-18T02:19:30.139Z,57.27
2017-08-18T02:21:57.593Z,50.43
2017-08-18T02:24:25.446Z,53.90
2017-08-18T02:26:52.929Z,48.43
2017-08-18T02:29:20.381Z,46.50
2017-08-18T02:31:47.833Z,49.43
2017-08-18T02:34:15.558Z,49.60
2017-08-18T02:36:43.010Z,41.17
2017-08-18T02:39:10.610Z,44.80
2017-08-18T03:14:27.231Z,40.87
2017-08-18T03:16:54.694Z,41.20
2017-08-18T03:19:22.146Z,42.17
2017-08-18T03:21:49.618Z,43.77
2017-08-18T03:24:17.081Z,42.23
2017-08-18T03:26:44.540Z,44.73
2017-08-18T03:29:11.994Z,45.13
2017-08-18T03:31:39.461Z,42.73
2017-08-18T03:34:07.222Z,43.37
2017-08-18T03:36:34.683Z,45.10
2017-08-18T03:39:02.139Z,41.67
2017-08-18T03:41:29.609Z,41.73
2017-08-18T03:43:57.067Z,50.97
2017-08-18T03:46:24.521Z,42.63
2017-08-18T03:48:51.989Z,46.63
2017-08-18T03:51:19.443Z,45.33
2017-08-18T03:53:46.893Z,46.20
2017-08-18T03:56:14.381Z,45.00
2017-08-18T03:58:41.842Z,43.63
2017-08-18T04:01:09.298Z,46.20
2017-08-18T04:03:36.769Z,47.33
2017-08-18T04:06:04.238Z,42.80
2017-08-18T04:08:31.694Z,43.20
2017-08-18T04:10:59.422Z,40.27
2017-08-18T04:13:26.878Z,37.90
2017-08-18T04:15:54.336Z,47.40
2017-08-18T04:18:21.806Z,48.63
2017-08-18T04:20:49.262Z,45.53
2017-08-18T04:23:16.942Z,49.30
2017-08-18T04:25:44.393Z,48.27
2017-08-18T04:28:11.849Z,46.83
2017-08-18T04:30:39.342Z,47.87
2017-08-18T04:33:06.794Z,45.47
2017-08-18T04:35:34.250Z,45.67
2017-08-18T04:38:01.722Z,42.37
2017-08-18T04:40:29.182Z,43.60
2017-08-18T04:42:56.638Z,47.27
2017-08-18T04:45:24.097Z,44.80
2017-08-18T04:47:51.549Z,46.53
2017-08-18T04:50:19.010Z,39.13
2017-08-18T04:52:46.465Z,50.60
2017-08-18T04:55:13.922Z,40.70
2017-08-18T04:57:41.411Z,43.43
2017-08-18T05:00:08.871Z,45.93
2017-08-18T05:02:36.491Z,41.30
2017-08-18T05:05:04.178Z,49.07
2017-08-18T05:07:31.634Z,41.07
2017-08-18T05:09:59.095Z,43.73
2017-08-18T05:12:26.561Z,42.47
2017-08-18T05:14:54.018Z,47.13
2017-08-18T05:17:21.471Z,41.27
2017-08-18T05:19:49.227Z,46.50
2017-08-18T05:22:16.670Z,41.20
2017-08-18T05:24:44.125Z,46.47
2017-08-18T05:27:11.861Z,40.93
2017-08-18T05:29:39.317Z,44.40
2017-08-18T05:32:06.778Z,40.73
2017-08-18T05:34:34.252Z,40.63
2017-08-18T05:37:01.701Z,42.13
2017-08-18T05:39:29.153Z,38.47
2017-08-18T05:41:56.931Z,37.23
2017-08-18T05:44:24.397Z,39.37
2017-08-18T05:46:51.845Z,36.83
2017-08-18T05:49:19.325Z,41.53
2017-08-18T05:51:46.805Z,38.37
2017-08-18T05:54:14.253Z,37.40
2017-08-18T05:56:41.750Z,39.90
2017-08-18T05:59:09.185Z,39.20
2017-08-18T06:01:36.643Z,43.57
2017-08-18T06:04:04.329Z,41.40
2017-08-18T06:06:31.793Z,35.70
2017-08-18T06:08:59.250Z,40.97
2017-08-18T06:11:26.737Z,37.43
2017-08-18T06:13:54.190Z,41.87
2017-08-18T06:16:21.642Z,40.73
2017-08-18T06:18:49.134Z,42.83
2017-08-18T06:21:16.585Z,38.23
2017-08-18T06:23:44.041Z,39.90
2017-08-18T06:26:11.741Z,43.87
2017-08-18T06:28:39.195Z,34.83
2017-08-18T06:31:06.659Z,38.10
2017-08-18T06:33:34.117Z,38.80
2017-08-18T06:36:01.573Z,37.00
2017-08-18T06:38:29.066Z,40.57
2017-08-18T06:40:56.521Z,39.90
2017-08-18T06:43:24.061Z,39.90
2017-08-18T06:45:51.897Z,35.37
2017-08-18T06:48:19.354Z,36.40
2017-08-18T06:50:46.816Z,36.30
2017-08-18T06:53:14.277Z,38.17
2017-08-18T06:55:41.731Z,37.10
2017-08-18T06:58:09.186Z,36.13
2017-08-18T07:00:36.924Z,35.87
2017-08-18T07:03:04.379Z,39.63
2017-08-18T07:05:31.833Z,32.10
2017-08-18T07:07:59.413Z,37.03
2017-08-18T07:10:26.870Z,37.40
2017-08-18T07:12:54.325Z,33.90
2017-08-18T07:15:21.969Z,34.77
2017-08-18T07:17:49.431Z,30.07
2017-08-18T07:20:16.890Z,27.60
2017-08-18T07:22:44.742Z,28.53
2017-08-18T07:25:12.198Z,28.33
2017-08-18T07:27:39.662Z,26.80
2017-08-18T07:30:07.137Z,26.63
2017-08-18T07:32:34.598Z,27.40
2017-08-18T07:35:02.066Z,27.87
2017-08-18T07:37:29.538Z,24.57
2017-08-18T07:39:57.002Z,24.40
2017-08-18T07:42:24.455Z,25.63
2017-08-18T07:44:51.950Z,22.77
2017-08-18T07:47:19.393Z,23.17
2017-08-18T07:49:46.849Z,21.13
2017-08-18T07:52:14.510Z,23.13
2017-08-18T07:54:41.966Z,20.97
2017-08-18T07:57:09.428Z,21.50
2017-08-18T07:59:36.902Z,19.00
2017-08-18T08:02:04.367Z,20.50
2017-08-18T08:04:31.825Z,16.80
2017-08-18T08:06:59.286Z,15.33
2017-08-18T08:09:26.842Z,16.63
2017-08-18T08:11:54.326Z,18.50
2017-08-18T08:14:21.783Z,19.80
2017-08-18T08:16:49.249Z,16.50
2017-08-18T08:19:16.764Z,17.67
2017-08-18T08:21:44.202Z,16.90
2017-08-18T08:24:11.655Z,16.43
2017-08-18T08:26:39.221Z,17.73
2017-08-18T08:29:06.678Z,18.17
2017-08-18T08:31:34.130Z,17.57
2017-08-18T08:34:01.593Z,15.60
2017-08-18T08:36:29.046Z,17.23
2017-08-18T08:38:56.522Z,15.03
2017-08-18T08:41:23.978Z,15.60
2017-08-18T08:43:51.426Z,16.90
2017-08-18T08:46:19.097Z,15.97
2017-08-18T08:48:46.555Z,16.00
2017-08-18T08:51:14.032Z,16.73
2017-08-18T08:53:41.495Z,16.73
2017-08-18T08:56:08.946Z,15.37
2017-08-18T08:58:36.401Z,15.73
2017-08-18T09:01:03.894Z,17.93
2017-08-18T09:03:31.337Z,15.97
2017-08-18T09:05:58.790Z,17.47
2017-08-18T09:08:26.273Z,16.40
2017-08-18T09:10:53.722Z,15.93
2017-08-18T09:13:21.170Z,15.47
2017-08-18T09:15:48.631Z,17.47
2017-08-18T09:18:16.108Z,19.50
2017-08-18T09:20:43.571Z,18.33
2017-08-18T09:23:11.022Z,18.33
2017-08-18T09:25:38.521Z,16.60
2017-08-18T09:28:05.978Z,15.93
2017-08-18T09:30:33.434Z,19.80
2017-08-18T09:33:00.906Z,16.90
2017-08-18T09:35:28.365Z,17.57
2017-08-18T09:37:55.805Z,17.30
2017-08-18T09:40:23.551Z,17.63
2017-08-18T09:42:51.005Z,18.30
2017-08-18T09:45:18.459Z,17.30
2017-08-18T09:47:45.931Z,18.57
2017-08-18T09:50:25.294Z,17.97
2017-08-18T09:53:04.678Z,18.00
2017-08-18T09:55:44.097Z,17.30
2017-08-18T10:01:14.182Z,17.63
2017-08-18T10:03:41.677Z,18.90
2017-08-18T10:06:09.127Z,16.37
2017-08-18T10:08:36.582Z,16.53
2017-08-18T10:11:04.374Z,19.50
2017-08-18T10:13:31.832Z,16.80
2017-08-18T10:15:59.294Z,17.37
2017-08-18T10:18:26.766Z,16.80
2017-08-18T10:20:54.223Z,17.77
2017-08-18T10:23:21.682Z,20.77
2017-08-18T10:25:49.449Z,16.73
2017-08-18T10:28:16.901Z,18.43
2017-08-18T10:30:44.349Z,18.80
2017-08-18T10:33:12.197Z,18.83
2017-08-18T10:35:39.658Z,19.00
2017-08-18T10:38:07.110Z,18.17
2017-08-18T10:40:34.771Z,21.13
2017-08-18T10:43:02.223Z,17.83
2017-08-18T10:45:29.679Z,18.17
2017-08-18T10:47:57.139Z,17.77
2017-08-18T10:50:24.602Z,18.83
2017-08-18T10:52:52.083Z,17.87
2017-08-18T10:55:19.529Z,20.50
2017-08-18T10:57:46.988Z,22.27
2017-08-18T11:00:14.633Z,17.27
2017-08-18T11:02:42.088Z,19.07
2017-08-18T11:05:09.550Z,18.70
2017-08-18T11:07:36.993Z,19.80
2017-08-18T11:10:04.638Z,19.97
2017-08-18T11:12:32.102Z,20.07
2017-08-18T11:14:59.562Z,25.40
2017-08-18T11:17:27.054Z,24.20
2017-08-18T11:19:54.515Z,21.70
2017-08-18T11:22:21.962Z,27.67
2017-08-18T11:24:49.441Z,22.87
2017-08-18T11:27:16.894Z,23.90
2017-08-18T11:29:44.352Z,23.13
2017-08-18T11:32:11.833Z,22.50
2017-08-18T11:34:39.282Z,24.27
2017-08-18T11:37:06.742Z,25.57
2017-08-18T11:39:34.194Z,30.07
2017-08-18T11:42:01.657Z,26.70
2017-08-18T11:44:29.120Z,28.93
2017-08-18T11:46:56.573Z,24.70
2017-08-18T11:49:24.036Z,34.33
2017-08-18T11:51:51.793Z,26.10
2017-08-18T11:54:19.245Z,25.33
2017-08-18T11:56:46.711Z,24.00
2017-08-18T11:59:14.206Z,23.90
2017-08-18T12:01:41.655Z,26.53
2017-08-18T12:04:09.120Z,28.67
2017-08-18T12:06:36.870Z,28.70
2017-08-18T12:09:04.322Z,27.83
2017-08-18T12:11:31.777Z,25.03
2017-08-18T12:13:59.248Z,30.67
2017-08-18T12:16:26.699Z,27.43
2017-08-18T12:18:54.145Z,26.83
2017-08-18T12:21:21.649Z,26.77
2017-08-18T12:23:49.111Z,28.73
2017-08-18T12:26:16.570Z,28.60
2017-08-18T12:28:44.050Z,28.77
2017-08-18T12:31:11.506Z,29.63
2017-08-18T12:33:38.969Z,33.03
2017-08-18T12:36:06.469Z,27.93
2017-08-18T12:38:33.940Z,31.33
2017-08-18T12:41:01.419Z,28.53
2017-08-18T12:43:28.878Z,34.17
2017-08-18T12:45:56.334Z,28.30
2017-08-18T12:48:23.791Z,30.13
2017-08-18T12:50:51.278Z,31.67
2017-08-18T12:53:18.749Z,29.57
2017-08-18T12:55:46.212Z,30.03
2017-08-18T12:58:13.677Z,32.70
2017-08-18T13:00:41.130Z,34.83
2017-08-18T13:03:08.637Z,28.67
2017-08-18T13:05:36.095Z,28.30
2017-08-18T13:08:03.548Z,30.67
2017-08-18T13:10:31.030Z,28.77
2017-08-18T13:12:58.488Z,28.67
2017-08-18T13:15:25.942Z,26.83
2017-08-18T13:17:53.418Z,26.10
2017-08-18T13:20:20.875Z,22.83
2017-08-18T13:22:48.331Z,22.67
2017-08-18T13:25:15.998Z,23.23
2017-08-18T13:27:43.456Z,40.10
2017-08-18T13:30:10.907Z,22.87
2017-08-18T13:32:38.378Z,18.60
2017-08-18T13:35:05.838Z,17.30
2017-08-18T13:37:33.290Z,17.27
2017-08-18T13:40:00.779Z,16.90
2017-08-18T13:42:28.239Z,17.43
2017-08-18T13:44:55.698Z,20.17
2017-08-18T13:47:23.190Z,16.93
2017-08-18T13:49:50.646Z,14.90
2017-08-18T13:52:18.098Z,13.23
2017-08-18T13:54:45.587Z,15.00
2017-08-18T13:57:13.033Z,12.70
2017-08-18T13:59:40.491Z,13.63
2017-08-18T14:02:07.978Z,14.80
2017-08-18T14:04:35.439Z,13.03
2017-08-18T14:07:02.887Z,15.80
2017-08-18T14:09:30.345Z,13.70
2017-08-18T14:11:57.813Z,13.37
2017-08-18T14:14:25.274Z,13.17
2017-08-18T14:16:52.742Z,11.57
2017-08-18T14:19:20.190Z,13.20
2017-08-18T14:21:47.847Z,14.93
2017-08-18T14:24:15.298Z,13.53
2017-08-18T14:26:48.494Z,14.27
2017-08-18T14:29:16.082Z,13.70
2017-08-18T14:31:43.538Z,13.30
2017-08-18T14:34:10.993Z,15.90
2017-08-18T14:36:38.462Z,14.40
2017-08-18T14:39:05.924Z,13.27
2017-08-18T14:41:33.374Z,13.50
2017-08-18T14:44:00.845Z,14.10
2017-08-18T14:46:28.310Z,15.33
2017-08-18T14:48:55.770Z,14.90
2017-08-18T14:51:23.487Z,16.60
2017-08-18T14:53:50.945Z,14.00
2017-08-18T14:56:18.404Z,13.23
2017-08-18T14:58:45.872Z,13.53
2017-08-18T15:01:13.331Z,13.20
2017-08-18T15:03:40.786Z,14.90
2017-08-18T15:06:08.265Z,14.93
2017-08-18T15:08:35.730Z,14.67
2017-08-18T15:11:03.189Z,15.03
2017-08-18T15:13:30.765Z,14.60
2017-08-18T15:15:58.219Z,13.43
2017-08-18T15:18:25.674Z,13.80
2017-08-18T15:20:53.452Z,15.50
2017-08-18T15:23:20.898Z,14.83
2017-08-18T15:25:48.346Z,12.00
2017-08-18T15:28:15.884Z,13.20
2017-08-18T15:30:43.342Z,17.03
2017-08-18T15:33:10.798Z,13.27
2017-08-18T15:35:38.266Z,13.67
2017-08-18T15:38:05.726Z,12.43
2017-08-18T15:40:33.169Z,12.43
2017-08-18T15:43:00.858Z,13.33
2017-08-18T15:45:28.307Z,13.23
2017-08-18T15:47:55.758Z,13.70
2017-08-18T15:50:23.233Z,14.23
2017-08-18T15:52:50.693Z,14.40
2017-08-18T15:55:18.154Z,14.50
2017-08-18T15:57:45.726Z,13.90
2017-08-18T16:00:13.195Z,13.50
2017-08-18T16:02:43.092Z,16.00
2017-08-18T16:05:11.170Z,15.30
2017-08-18T16:07:38.624Z,15.73
2017-08-18T16:10:06.079Z,15.90
2017-08-18T16:12:33.914Z,14.07
2017-08-18T16:15:01.366Z,16.97
2017-08-18T16:17:28.817Z,15.23
2017-08-18T16:19:56.550Z,16.83
2017-08-18T16:22:24.003Z,15.83
2017-08-18T16:24:51.458Z,16.67
2017-08-18T16:27:19.029Z,15.60
2017-08-18T16:29:46.487Z,17.57
2017-08-18T16:32:13.947Z,17.33
2017-08-18T16:34:41.430Z,20.70
2017-08-18T16:37:08.887Z,21.43
2017-08-18T16:39:36.341Z,21.10
2017-08-18T16:42:03.821Z,21.67
2017-08-18T16:44:31.282Z,18.40
2017-08-18T16:46:58.744Z,18.80
2017-08-18T16:49:26.196Z,18.03
2017-08-18T16:51:53.657Z,20.90
2017-08-18T16:54:21.119Z,20.43
2017-08-18T16:56:48.575Z,23.40
2017-08-18T16:59:16.027Z,20.20
2017-08-18T17:01:43.487Z,22.07
2017-08-18T17:04:10.953Z,19.00
2017-08-18T17:06:38.737Z,20.43
2017-08-18T17:09:06.193Z,20.83
2017-08-18T17:11:33.711Z,20.83
2017-08-18T17:14:01.175Z,24.17
2017-08-18T17:16:28.643Z,22.57
2017-08-18T17:18:56.110Z,23.70
2017-08-18T17:21:23.708Z,23.53
2017-08-18T17:23:51.956Z,21.80
2017-08-18T17:26:19.474Z,23.20
2017-08-18T17:28:46.937Z,23.97
2017-08-18T17:31:14.407Z,28.23
2017-08-18T17:33:41.967Z,23.10
2017-08-18T17:36:09.414Z,23.93
2017-08-18T17:38:36.894Z,23.73
2017-08-18T17:41:04.368Z,24.27
2017-08-18T17:43:32.213Z,24.13
2017-08-18T17:45:59.786Z,24.50
2017-08-18T17:48:27.247Z,25.07
2017-08-18T17:50:54.698Z,24.67
2017-08-18T17:53:22.191Z,27.70
2017-08-18T17:55:49.645Z,27.00
2017-08-18T17:58:17.103Z,28.17
2017-08-18T18:00:44.576Z,28.17
2017-08-18T18:03:12.045Z,27.77
2017-08-18T18:05:39.811Z,28.87
2017-08-18T18:08:07.277Z,30.77
2017-08-18T18:10:34.733Z,33.03
2017-08-18T18:13:02.234Z,33.70
2017-08-18T18:15:29.703Z,32.70
2017-08-18T18:17:57.165Z,35.80
2017-08-18T18:20:24.733Z,34.77
2017-08-18T18:22:52.191Z,35.90
2017-08-18T18:25:19.638Z,33.23
2017-08-18T18:27:47.314Z,38.87
2017-08-18T18:30:14.790Z,37.90
2017-08-18T18:32:42.247Z,37.87
2017-08-18T18:35:09.702Z,36.80
2017-08-18T18:37:37.155Z,35.47
2017-08-18T18:40:04.630Z,36.40
2017-08-18T18:42:32.088Z,35.07
2017-08-18T18:44:59.561Z,35.60
2017-08-18T18:47:27.038Z,35.60
2017-08-18T18:49:54.490Z,40.27
2017-08-18T18:52:21.950Z,41.63
2017-08-18T18:54:49.630Z,36.17
2017-08-18T18:57:17.087Z,38.60
2017-08-18T18:59:44.565Z,32.73
2017-08-18T19:02:12.022Z,33.00
2017-08-18T19:04:39.474Z,30.73
2017-08-18T19:07:06.946Z,20.83
2017-08-18T19:09:34.430Z,15.87
2017-08-18T19:12:01.898Z,21.73
2017-08-18T19:14:29.699Z,18.63
2017-08-18T19:16:57.150Z,16.20
2017-08-18T19:19:24.606Z,12.20
2017-08-18T19:21:52.073Z,10.17
2017-08-18T19:24:19.541Z,10.67
2017-08-18T19:26:47.007Z,10.03
2017-08-18T19:29:14.819Z,9.07
2017-08-18T19:31:42.282Z,9.33
2017-08-18T19:34:09.742Z,8.97
2017-08-18T19:36:37.489Z,8.90
2017-08-18T19:39:04.946Z,8.60
2017-08-18T19:41:32.409Z,8.90
2017-08-18T19:43:59.875Z,9.80
2017-08-18T19:46:27.333Z,10.47
2017-08-18T19:48:54.778Z,7.40
2017-08-18T19:51:22.347Z,6.83
2017-08-18T19:53:49.813Z,6.90
2017-08-18T19:56:17.270Z,8.53
2017-08-18T19:58:44.990Z,8.40
2017-08-18T20:01:12.434Z,8.00
2017-08-18T20:03:39.885Z,8.03
2017-08-18T20:06:07.669Z,11.93
2017-08-18T20:08:35.127Z,9.23
2017-08-18T20:11:02.583Z,6.90
2017-08-18T20:13:30.346Z,7.70
2017-08-18T20:15:57.798Z,8.57
2017-08-18T20:18:25.262Z,6.77
2017-08-18T20:20:52.744Z,6.60
2017-08-18T20:23:20.201Z,6.87
2017-08-18T20:25:47.659Z,7.30
2017-08-18T20:28:15.148Z,6.60
2017-08-18T20:30:42.602Z,6.70
2017-08-18T20:33:10.054Z,8.20
2017-08-18T20:35:37.556Z,5.10
2017-08-18T20:38:05.003Z,6.00
2017-08-18T20:40:32.450Z,8.10
2017-08-18T20:43:00.133Z,7.80
2017-08-18T20:45:27.568Z,7.33
2017-08-18T20:47:55.022Z,9.70
2017-08-18T20:50:22.485Z,8.40
2017-08-18T20:52:49.942Z,7.13
2017-08-18T20:55:17.388Z,7.47
2017-08-18T20:57:44.857Z,9.73
2017-08-18T21:00:12.305Z,9.90
2017-08-18T21:02:39.753Z,9.93
2017-08-18T21:05:07.393Z,9.23
2017-08-18T21:07:34.846Z,10.43
2017-08-18T21:10:02.310Z,11.60
2017-08-18T21:12:29.808Z,11.63
2017-08-18T21:14:57.255Z,10.97
2017-08-18T21:17:24.706Z,12.83
2017-08-18T21:19:52.197Z,15.90
2017-08-18T21:22:19.655Z,12.83
2017-08-18T21:24:47.121Z,14.03
2017-08-18T21:27:14.611Z,13.40
2017-08-18T21:29:42.066Z,12.40
2017-08-18T21:32:09.521Z,13.37
2017-08-18T21:34:37.280Z,15.40
2017-08-18T21:37:04.747Z,14.20
2017-08-18T21:39:32.195Z,16.23
2017-08-18T21:41:59.673Z,17.43
2017-08-18T21:44:27.122Z,17.20
2017-08-18T21:46:54.578Z,17.43
2017-08-18T21:49:22.217Z,17.67
2017-08-18T21:51:49.687Z,20.27
2017-08-18T21:54:17.133Z,20.67
2017-08-18T21:56:44.606Z,18.33
2017-08-18T21:59:12.070Z,20.00
2017-08-18T22:01:39.530Z,19.30
2017-08-18T22:04:07.014Z,21.60
2017-08-18T22:06:34.470Z,23.10
2017-08-18T22:09:01.938Z,21.47
2017-08-18T22:11:29.395Z,23.13
2017-08-18T22:13:56.850Z,23.03
2017-08-18T22:16:24.567Z,23.97
2017-08-18T22:18:52.035Z,24.20
2017-08-18T22:21:19.489Z,24.50
2017-08-18T22:23:46.974Z,23.17
2017-08-18T22:26:14.430Z,24.20
2017-08-18T22:28:41.910Z,28.57
2017-08-18T22:31:09.378Z,25.33
2017-08-18T22:33:36.838Z,31.37
2017-08-18T22:36:04.290Z,28.30
2017-08-18T22:38:34.471Z,33.00
2017-08-18T22:41:01.939Z,30.57
2017-08-18T22:43:29.456Z,29.63
2017-08-18T22:45:56.982Z,29.23
2017-08-18T22:48:24.478Z,29.17
2017-08-18T22:50:51.975Z,28.47
2017-08-18T22:53:19.656Z,30.50
2017-08-18T22:55:47.114Z,34.40
2017-08-18T22:58:14.569Z,29.80
2017-08-18T23:00:42.297Z,38.33
2017-08-18T23:03:09.750Z,33.47
2017-08-18T23:05:37.210Z,33.37
2017-08-18T23:08:04.697Z,37.60
2017-08-18T23:10:32.166Z,35.87
2017-08-18T23:12:59.622Z,35.80
2017-08-18T23:15:27.110Z,35.73
2017-08-18T23:17:54.565Z,38.13
2017-08-18T23:20:22.030Z,34.60
2017-08-18T23:22:49.702Z,34.47
2017-08-18T23:25:17.160Z,36.70
2017-08-18T23:27:44.615Z,36.47
2017-08-18T23:30:12.073Z,36.17
2017-08-18T23:32:39.825Z,40.00
2017-08-18T23:35:07.281Z,35.10
2017-08-18T23:37:34.747Z,39.00
2017-08-18T23:40:02.475Z,40.03
2017-08-18T23:42:29.927Z,38.97
2017-08-18T23:44:57.391Z,42.30
2017-08-18T23:47:24.861Z,38.53
2017-08-18T23:49:52.318Z,36.43
2017-08-18T23:52:19.778Z,38.63
2017-08-18T23:54:47.254Z,39.70
2017-08-18T23:57:14.713Z,42.17
2017-08-18T23:59:42.168Z,47.90
